HTIR/IRI METAR and TAF weather

Enter ICAO airport designator
Station Type Date Time Source
HTIR METAR 2020/02/21 15:00 UTC NOAA

HTIR 211500Z 19005KT 9999 FEW020 BKN021 FEW022CB BKN070 20/18 Q1017 RETS


Station Type Date Time Source
HTIR Decoded METAR 2020/02/21 15:00 UTC NOAA

Iringa, Tanzania (HTIR) 07-40S 035-45E 1428M
Feb 21, 2020 - 10:00 AM EST / 2020.02.21 1500 UTC
Wind: from the S (190 degrees) at 6 MPH (5 KT):0
Visibility: greater than 7 mile(s):0
Sky conditions: mostly cloudy
Weather: Cumulonimbus clouds observed
Temperature: 68 F (20 C)
Dew Point: 64 F (18 C)
Relative Humidity: 88%
Pressure (altimeter): 30.03 in. Hg (1017 hPa)
ob: HTIR 211500Z 19005KT 9999 FEW020 BKN021 FEW022CB BKN070 20/18 Q1017 RETS
cycle: 15

Station Type Date Time Source
HTIR TAF UTC NOAA

Error!

Example: see airport list